Villa Grove, Illinois
Current Conditions -  °F | °C
As of 1:53 AM on Sunday 21 Dec 2014 (Local Time) from KCMI Reporting Station
Overcast Overcast  
Wind Chill: 25°   Ceiling: 2800
Heat Index: 32°   Visibility: 7mi
Dew Point: 27°   Wind: 8mph
Humidity: 82%   Direction: 160°SSE
Pressure: 30.26"   Gusts: NA
Location:  39.86°N, 88.16°W
Report Text: KCMI 210753Z AUTO 16007KT 7SM OVC028 00/M03 A3026 RMK AO2 SLP254 T00001028
Loading
Personal Weather Stations






























Interactive Weather Map New forecast layout! Learn more

10-Day Weather Forecast

Advertisements
Track Severe Weather on mobile